Time;durP1;ratioP1;P1;durP2;ratioP2;P2;SDS_P1;SDS_P2;PMS_P1;PMS_P2;Temp;Humidity;BMP_temperature;BMP_pressure;BME280_temperature;BME280_humidity;BME280_pressure;Samples;Min_cycle;Max_cycle;Signal;HPM_P1;HPM_P2
2024/03/31 00:01:19;;;;;;;27.35;9.00;;;;;;;20.98;46.72;99157.81;2343102;75;52033;-84
2024/03/31 00:04:21;;;;;;;27.73;8.93;;;;;;;20.99;46.69;99159.47;2311027;75;50688;-83
2024/03/31 00:07:24;;;;;;;27.15;8.30;;;;;;;20.99;46.68;99154.59;2336969;76;51458;-84
2024/03/31 00:10:26;;;;;;;29.77;9.15;;;;;;;20.98;46.67;99153.78;2342759;76;50423;-83
2024/03/31 00:13:31;;;;;;;24.00;8.63;;;;;;;20.99;46.66;99151.91;2342978;76;51417;-84
2024/03/31 00:16:33;;;;;;;25.52;9.15;;;;;;;20.97;46.65;99152.16;2310905;76;51234;-83
2024/03/31 00:19:35;;;;;;;26.77;8.85;;;;;;;20.96;46.68;99151.88;2342834;76;50705;-84
2024/03/31 00:22:38;;;;;;;27.20;9.00;;;;;;;20.98;46.63;99162.37;2337088;75;51354;-83
2024/03/31 00:25:40;;;;;;;26.65;8.80;;;;;;;20.97;46.70;99148.13;2310596;76;50950;-84
2024/03/31 00:28:42;;;;;;;27.50;9.10;;;;;;;20.97;46.73;99145.44;2342936;76;50707;-83
2024/03/31 00:31:45;;;;;;;27.45;8.93;;;;;;;20.98;46.77;99149.75;2310476;76;50982;-85
2024/03/31 00:34:47;;;;;;;22.73;8.45;;;;;;;20.97;46.77;99151.34;2342312;75;50401;-83
2024/03/31 00:37:49;;;;;;;23.35;8.95;;;;;;;20.97;46.75;99143.28;2310442;76;50656;-83
2024/03/31 00:40:52;;;;;;;22.60;8.10;;;;;;;20.96;46.74;99145.16;2310459;76;50985;-82
2024/03/31 00:43:54;;;;;;;24.00;8.63;;;;;;;20.97;46.78;99136.56;2342203;75;50415;-84
2024/03/31 00:46:56;;;;;;;28.73;8.53;;;;;;;20.97;46.81;99148.13;2342329;76;50304;-84
2024/03/31 00:49:58;;;;;;;24.47;8.73;;;;;;;20.96;46.79;99140.28;2344586;76;50681;-83
2024/03/31 00:53:01;;;;;;;24.85;8.80;;;;;;;20.96;46.77;99135.75;2343839;76;50752;-83
2024/03/31 00:56:03;;;;;;;23.05;8.13;;;;;;;20.97;46.69;99123.92;2311351;76;50062;-83
2024/03/31 00:59:05;;;;;;;29.55;9.25;;;;;;;20.96;46.70;99122.30;2311675;76;50095;-83
2024/03/31 01:02:08;;;;;;;29.72;9.60;;;;;;;20.96;46.65;99118.27;2344881;76;51225;-82
2024/03/31 01:05:10;;;;;;;23.70;9.30;;;;;;;20.97;46.62;99115.05;2311649;76;50195;-83
2024/03/31 01:08:13;;;;;;;27.02;9.28;;;;;;;20.96;46.60;99113.39;2311366;76;51506;-82
2024/03/31 01:11:17;;;;;;;27.42;8.30;;;;;;;20.96;46.56;99112.89;2343097;76;50753;-83
2024/03/31 01:14:19;;;;;;;29.85;9.08;;;;;;;20.96;46.60;99113.39;2343018;75;51563;-83
2024/03/31 01:17:21;;;;;;;25.08;9.00;;;;;;;20.96;46.67;99112.05;2311031;76;50177;-85
2024/03/31 01:20:23;;;;;;;30.27;9.93;;;;;;;20.96;46.71;99110.20;2311000;76;50942;-84
2024/03/31 01:23:28;;;;;;;25.77;9.13;;;;;;;20.95;46.70;99109.89;2342952;76;50682;-84
2024/03/31 01:26:30;;;;;;;26.90;9.37;;;;;;;20.96;46.72;99114.23;2343230;75;50130;-83
2024/03/31 01:29:32;;;;;;;29.95;9.43;;;;;;;20.96;46.70;99108.86;2342929;76;50423;-82
2024/03/31 01:32:34;;;;;;;30.15;9.93;;;;;;;20.95;46.67;99103.17;2343048;76;50741;-84
2024/03/31 01:35:37;;;;;;;32.98;10.55;;;;;;;20.95;46.62;99096.45;2342777;75;50692;-82
2024/03/31 01:38:39;;;;;;;26.62;9.73;;;;;;;20.94;46.61;99086.77;2343005;76;50723;-82
2024/03/31 01:41:44;;;;;;;30.55;9.80;;;;;;;20.95;46.56;99092.41;2343468;76;50707;-84
2024/03/31 01:44:45;;;;;;;28.65;9.68;;;;;;;20.95;46.59;99092.95;2343413;75;22594;-84
2024/03/31 01:47:47;;;;;;;32.48;10.23;;;;;;;20.95;46.53;99092.41;2343344;76;50140;-83
2024/03/31 01:50:49;;;;;;;36.05;9.80;;;;;;;20.95;46.54;99092.41;2343427;76;50174;-83
2024/03/31 01:53:52;;;;;;;26.12;9.43;;;;;;;20.94;46.53;99091.33;2311298;75;50110;-84
2024/03/31 01:56:54;;;;;;;33.00;9.45;;;;;;;20.94;46.53;99086.77;2343144;76;52742;-86
2024/03/31 01:59:56;;;;;;;33.25;10.15;;;;;;;20.95;46.53;99095.10;2311322;76;51497;-84
2024/03/31 02:02:59;;;;;;;30.40;10.48;;;;;;;20.96;46.54;99097.26;2343503;76;50630;-86
2024/03/31 02:06:09;;;;;;;24.15;8.83;;;;;;;20.96;46.51;99091.38;2343108;75;50750;-85
2024/03/31 02:09:11;;;;;;;27.73;9.73;;;;;;;20.95;46.54;99090.26;2311512;76;50861;-83
2024/03/31 02:12:14;;;;;;;26.57;9.58;;;;;;;20.95;46.63;99085.69;2343463;76;50758;-83
2024/03/31 02:15:16;;;;;;;26.95;9.25;;;;;;;20.95;46.63;99088.38;2343261;75;51622;-83
2024/03/31 02:18:18;;;;;;;24.37;8.95;;;;;;;20.95;46.69;99091.07;2299859;76;51658;-84
2024/03/31 02:21:20;;;;;;;25.57;9.38;;;;;;;20.96;46.71;99094.57;2343556;76;51543;-83
2024/03/31 02:24:22;;;;;;;25.88;9.63;;;;;;;20.95;46.74;99087.04;2343526;75;50725;-83
2024/03/31 02:27:25;;;;;;;23.40;8.43;;;;;;;20.96;46.74;99090.03;2311462;76;50735;-82
2024/03/31 02:30:27;;;;;;;24.82;8.98;;;;;;;20.96;46.74;99081.13;2343368;76;50298;-82
2024/03/31 02:33:29;;;;;;;26.23;9.13;;;;;;;20.95;46.73;99088.38;2311394;76;50235;-84
2024/03/31 02:36:31;;;;;;;24.20;9.18;;;;;;;20.96;46.72;99091.38;2311282;76;51482;-84
2024/03/31 02:39:33;;;;;;;30.32;9.45;;;;;;;20.97;46.67;99096.22;2343275;76;51519;-83
2024/03/31 02:42:36;;;;;;;26.12;10.10;;;;;;;20.95;46.60;99097.79;2284800;76;51019;-82
2024/03/31 02:45:38;;;;;;;31.25;9.98;;;;;;;20.95;46.60;99095.10;2327045;76;50823;-84
2024/03/31 02:48:40;;;;;;;24.92;9.23;;;;;;;20.95;46.52;99093.76;2327384;76;51475;-83
2024/03/31 02:51:43;;;;;;;31.35;9.38;;;;;;;20.95;46.51;99093.76;2293611;76;51431;-83
2024/03/31 02:54:45;;;;;;;23.98;9.00;;;;;;;20.95;46.51;99103.70;2327661;76;50778;-83
2024/03/31 02:57:50;;;;;;;28.55;10.30;;;;;;;20.95;46.50;99089.73;2293430;76;52606;-84
2024/03/31 03:00:53;;;;;;;27.00;9.95;;;;;;;20.95;46.47;99091.07;2327652;76;50407;-81
2024/03/31 03:03:55;;;;;;;23.55;9.63;;;;;;;20.93;46.47;99081.07;2293619;76;50632;-83
2024/03/31 03:06:57;;;;;;;28.40;9.83;;;;;;;20.95;46.46;99085.69;2293528;76;50993;-82
2024/03/31 03:09:59;;;;;;;29.67;9.63;;;;;;;20.94;46.48;99088.10;2327961;76;50783;-81
2024/03/31 03:13:02;;;;;;;25.05;9.65;;;;;;;20.95;46.46;99096.98;2327911;76;51547;-84
2024/03/31 03:16:05;;;;;;;24.15;9.15;;;;;;;20.95;46.48;99101.83;2327554;76;50804;-84
2024/03/31 03:19:07;;;;;;;22.10;8.60;;;;;;;20.96;46.57;99109.36;2293691;76;51527;-84
2024/03/31 03:22:09;;;;;;;21.70;8.78;;;;;;;20.95;46.51;99108.55;2293684;76;51056;-83
2024/03/31 03:25:11;;;;;;;33.00;9.43;;;;;;;20.95;46.53;99112.58;2319679;76;51527;-83
2024/03/31 03:28:14;;;;;;;29.80;9.78;;;;;;;20.95;46.53;99101.83;2327992;76;51457;-84
2024/03/31 03:31:16;;;;;;;25.15;9.13;;;;;;;20.95;46.46;99103.70;2293670;76;50981;-83
2024/03/31 03:34:18;;;;;;;25.75;9.65;;;;;;;20.94;46.46;99130.31;2327819;76;50720;-83
2024/03/31 03:37:20;;;;;;;32.08;9.83;;;;;;;20.94;46.45;99127.09;2327438;76;50716;-84
2024/03/31 03:40:22;;;;;;;27.55;9.55;;;;;;;20.94;46.41;99121.72;2292904;76;51145;-83
2024/03/31 03:43:26;;;;;;;26.65;9.70;;;;;;;20.94;46.38;99129.78;2317704;76;51492;-82
2024/03/31 03:46:28;;;;;;;26.97;9.55;;;;;;;20.94;46.41;99125.75;2291576;76;50131;-81
2024/03/31 03:49:30;;;;;;;31.42;9.33;;;;;;;20.94;46.41;99133.81;2315890;76;52660;-82
2024/03/31 03:52:32;;;;;;;28.52;9.88;;;;;;;20.94;46.39;99131.13;2291704;76;51385;-82
2024/03/31 03:55:35;;;;;;;27.42;9.28;;;;;;;20.95;46.47;99123.87;2291341;76;50996;-83
2024/03/31 03:58:37;;;;;;;24.20;9.30;;;;;;;20.95;46.56;99131.41;2315616;76;50706;-83
2024/03/31 04:01:39;;;;;;;28.05;8.88;;;;;;;20.95;46.61;99126.55;2316576;76;51530;-83
2024/03/31 04:04:41;;;;;;;28.70;9.75;;;;;;;20.95;46.59;99116.61;2292622;76;50636;-83
2024/03/31 04:07:45;;;;;;;25.60;9.08;;;;;;;20.95;46.57;99105.86;2292717;76;51449;-82
2024/03/31 04:10:48;;;;;;;28.23;9.63;;;;;;;20.95;46.61;99113.92;2312055;76;51863;-81
2024/03/31 04:13:50;;;;;;;25.80;9.20;;;;;;;20.96;46.58;99117.42;2319055;76;50853;-82
2024/03/31 04:16:52;;;;;;;33.63;10.75;;;;;;;20.96;46.56;99109.36;2292934;76;50666;-81
2024/03/31 04:19:55;;;;;;;22.20;8.93;;;;;;;20.95;46.47;99109.89;2293009;76;49926;-84
2024/03/31 04:22:57;;;;;;;28.25;10.03;;;;;;;20.94;46.46;99114.18;2316520;76;51456;-83
2024/03/31 04:25:59;;;;;;;24.57;9.28;;;;;;;20.96;46.42;99114.73;2316181;76;51502;-82
2024/03/31 04:29:01;;;;;;;27.02;9.10;;;;;;;20.95;46.40;99115.27;2292268;76;49606;-83
2024/03/31 04:32:03;;;;;;;25.05;9.33;;;;;;;20.95;46.40;99113.92;2316309;76;50788;-83
2024/03/31 04:35:06;;;;;;;24.45;9.43;;;;;;;20.95;46.39;99119.30;2291976;76;50919;-83
2024/03/31 04:38:08;;;;;;;30.70;9.78;;;;;;;20.95;46.38;99115.80;2291865;76;51447;-83
2024/03/31 04:41:10;;;;;;;26.02;9.68;;;;;;;20.95;46.38;99129.25;2317968;76;50711;-82
2024/03/31 04:44:12;;;;;;;27.90;10.08;;;;;;;20.95;46.36;99121.18;2294607;76;50083;-83
2024/03/31 04:47:14;;;;;;;24.80;9.45;;;;;;;20.94;46.37;99119.02;2295494;76;50081;-83
2024/03/31 04:50:18;;;;;;;28.47;9.60;;;;;;;20.94;46.36;99123.06;2320312;76;50793;-82
2024/03/31 04:53:20;;;;;;;26.20;10.15;;;;;;;20.94;46.34;99119.02;2322286;74;51350;-82
2024/03/31 04:56:22;;;;;;;27.13;9.60;;;;;;;20.94;46.37;99130.31;2296161;74;51265;-82
2024/03/31 04:59:24;;;;;;;27.62;9.33;;;;;;;20.94;46.45;99141.88;2295154;76;50282;-82
2024/03/31 05:02:27;;;;;;;23.35;9.25;;;;;;;20.94;46.49;99157.20;2295887;75;50822;-84
2024/03/31 05:05:29;;;;;;;24.92;9.23;;;;;;;20.94;46.50;99155.32;2315301;76;50362;-84
2024/03/31 05:08:31;;;;;;;26.62;10.08;;;;;;;20.94;46.52;99141.06;2290866;76;50123;-83
2024/03/31 05:11:33;;;;;;;23.57;9.88;;;;;;;20.94;46.48;99137.84;2316612;75;51486;-83
2024/03/31 05:14:35;;;;;;;20.25;9.15;;;;;;;20.93;46.54;99140.22;2290404;76;51491;-83
2024/03/31 05:17:37;;;;;;;28.10;8.75;;;;;;;20.94;46.56;99137.03;2314751;76;51402;-83
2024/03/31 05:20:40;;;;;;;25.85;9.28;;;;;;;20.95;46.42;99131.41;2315079;76;50800;-83
2024/03/31 05:23:45;;;;;;;23.55;9.60;;;;;;;20.93;46.47;99136.19;2316371;76;50418;-84
2024/03/31 05:26:46;;;;;;;29.77;9.83;;;;;;;20.94;46.43;99128.97;2316128;75;22382;-83
2024/03/31 05:29:48;;;;;;;29.80;9.85;;;;;;;20.93;46.39;99124.09;2314996;76;52025;-83
2024/03/31 05:32:50;;;;;;;31.42;9.90;;;;;;;20.93;46.39;99127.31;2284240;76;49862;-83
2024/03/31 05:35:52;;;;;;;27.87;10.00;;;;;;;20.92;46.35;99121.12;2315393;76;50389;-83
2024/03/31 05:38:54;;;;;;;27.82;9.80;;;;;;;20.93;46.35;99124.63;2315068;76;50722;-83
2024/03/31 05:41:57;;;;;;;27.42;10.00;;;;;;;20.92;46.32;99133.22;2323358;76;50785;-83
2024/03/31 05:44:59;;;;;;;31.90;10.10;;;;;;;20.92;46.33;99136.45;2310541;76;50646;-81
2024/03/31 05:48:02;;;;;;;28.07;10.88;;;;;;;20.92;46.28;99133.22;2313451;76;50251;-85
2024/03/31 05:51:04;;;;;;;27.85;9.75;;;;;;;20.92;46.37;99126.50;2336634;75;50773;-83
2024/03/31 05:54:06;;;;;;;28.98;10.20;;;;;;;20.93;46.34;99127.31;2309993;75;51537;-82
2024/03/31 05:57:08;;;;;;;27.10;9.50;;;;;;;20.93;46.41;99141.57;2309636;76;51111;-83
2024/03/31 06:00:12;;;;;;;26.35;9.40;;;;;;;20.94;46.42;99145.91;2342159;76;50858;-83
2024/03/31 06:03:14;;;;;;;30.10;10.23;;;;;;;20.94;46.39;99129.78;2342141;76;51551;-82
2024/03/31 06:06:16;;;;;;;33.05;9.18;;;;;;;20.93;46.36;99124.09;2310105;76;51387;-83
2024/03/31 06:09:18;;;;;;;29.02;9.05;;;;;;;20.92;46.35;99121.12;2310080;76;50408;-83
2024/03/31 06:12:21;;;;;;;28.75;9.65;;;;;;;20.93;46.36;99122.75;2298458;76;49559;-84
2024/03/31 06:15:23;;;;;;;27.05;9.73;;;;;;;20.93;46.33;99103.92;2310155;76;50784;-83
2024/03/31 06:18:25;;;;;;;24.55;9.93;;;;;;;20.93;46.36;99105.27;2342203;76;51384;-83
2024/03/31 06:21:27;;;;;;;25.72;10.10;;;;;;;20.93;46.34;99107.15;2310200;76;50115;-82
2024/03/31 06:24:29;;;;;;;25.95;9.60;;;;;;;20.92;46.36;99111.72;2342199;75;51531;-83
2024/03/31 06:27:32;;;;;;;22.48;9.08;;;;;;;20.93;46.36;99108.49;2342037;76;50369;-83
2024/03/31 06:30:34;;;;;;;29.07;10.35;;;;;;;20.94;46.32;99104.77;2342267;76;50436;-83
2024/03/31 06:33:36;;;;;;;30.25;10.35;;;;;;;20.93;46.36;99103.92;2342455;76;50710;-83
2024/03/31 06:36:38;;;;;;;23.47;9.25;;;;;;;20.93;46.39;99099.89;2310579;76;50989;-83
2024/03/31 06:39:40;;;;;;;24.37;9.93;;;;;;;20.94;46.43;99112.84;2342968;76;50675;-82
2024/03/31 06:42:42;;;;;;;22.50;9.20;;;;;;;20.95;46.51;99109.08;2334397;76;51562;-83
2024/03/31 06:45:45;;;;;;;22.93;8.93;;;;;;;20.95;46.57;99117.14;2291117;76;49343;-82
2024/03/31 06:48:47;;;;;;;22.85;9.38;;;;;;;20.95;46.63;99108.55;2317650;76;50388;-84
2024/03/31 06:51:49;;;;;;;21.87;9.10;;;;;;;20.96;46.71;99107.52;2315817;76;50721;-83
2024/03/31 06:54:53;;;;;;;21.33;9.05;;;;;;;20.97;46.74;99097.57;2317676;75;50768;-83
2024/03/31 06:57:55;;;;;;;24.23;8.70;;;;;;;20.95;46.75;99091.07;2315434;76;51584;-82
2024/03/31 07:00:58;;;;;;;29.10;10.13;;;;;;;20.95;46.75;99077.63;2291403;76;51060;-82
2024/03/31 07:04:00;;;;;;;24.02;9.45;;;;;;;20.95;46.73;99077.63;2291615;76;51663;-83
2024/03/31 07:07:02;;;;;;;24.72;9.20;;;;;;;20.95;46.74;99080.31;2315586;76;51551;-82
2024/03/31 07:10:05;;;;;;;26.60;9.23;;;;;;;20.96;46.66;99081.97;2284293;76;49571;-83
2024/03/31 07:13:07;;;;;;;28.83;8.70;;;;;;;20.95;46.56;99074.94;2291188;76;51273;-83
2024/03/31 07:16:09;;;;;;;25.65;8.80;;;;;;;20.95;46.58;99072.78;2315284;76;51667;-83
2024/03/31 07:19:11;;;;;;;29.40;9.30;;;;;;;20.96;46.55;99074.41;2316151;76;51407;-83
2024/03/31 07:22:14;;;;;;;28.10;9.23;;;;;;;20.96;46.55;99073.06;2316751;76;51528;-83
2024/03/31 07:25:16;;;;;;;26.52;10.03;;;;;;;20.95;46.54;99084.34;2292158;76;50096;-83
2024/03/31 07:28:18;;;;;;;25.02;9.55;;;;;;;20.96;46.53;99091.88;2317049;76;50213;-82
2024/03/31 07:31:20;;;;;;;24.92;9.33;;;;;;;20.96;46.51;99096.76;2317319;76;50704;-82
2024/03/31 07:34:22;;;;;;;23.73;9.08;;;;;;;20.96;46.52;99090.54;2292820;76;50092;-84
2024/03/31 07:37:25;;;;;;;26.12;9.90;;;;;;;20.95;46.53;99090.26;2315332;76;51535;-83
2024/03/31 07:40:27;;;;;;;28.65;9.00;;;;;;;20.95;46.51;99096.45;2314936;76;51503;-84
2024/03/31 07:43:29;;;;;;;25.40;10.23;;;;;;;20.95;46.56;99091.07;2326154;76;50396;-83
2024/03/31 07:46:32;;;;;;;26.85;9.50;;;;;;;20.96;46.63;99096.76;2342047;75;51461;-82
2024/03/31 07:49:34;;;;;;;20.62;9.00;;;;;;;20.96;46.71;99097.26;2310287;76;51015;-83
2024/03/31 07:52:38;;;;;;;30.15;9.75;;;;;;;20.95;46.74;99105.86;2310649;76;51414;-83
2024/03/31 07:55:41;;;;;;;27.60;9.58;;;;;;;20.96;46.74;99107.52;2342583;75;23769;-83
2024/03/31 07:58:43;;;;;;;25.23;8.83;;;;;;;20.96;46.73;99103.48;2299088;76;49894;-83
2024/03/31 08:01:45;;;;;;;20.75;8.88;;;;;;;20.96;46.68;99105.33;2337062;75;50564;-83
2024/03/31 08:04:47;;;;;;;24.47;9.33;;;;;;;20.96;46.64;99103.48;2342337;75;50817;-84
2024/03/31 08:07:49;;;;;;;23.62;8.55;;;;;;;20.96;46.60;99100.79;2310204;76;50392;-83
2024/03/31 08:10:52;;;;;;;21.42;9.28;;;;;;;20.97;46.65;99086.81;2342299;76;50729;-83
2024/03/31 08:13:54;;;;;;;22.50;9.65;;;;;;;20.96;46.59;99083.31;2310466;75;51051;-83
2024/03/31 08:16:56;;;;;;;31.52;10.25;;;;;;;20.98;46.63;99077.68;2342375;76;50745;-84
2024/03/31 08:19:58;;;;;;;23.32;9.80;;;;;;;20.98;46.62;99083.06;2342311;76;51394;-83
2024/03/31 08:23:00;;;;;;;25.15;9.25;;;;;;;20.98;46.61;99083.88;2310336;76;49488;-83
2024/03/31 08:26:03;;;;;;;21.35;9.08;;;;;;;20.98;46.72;99087.09;2336586;75;50458;-83
2024/03/31 08:29:05;;;;;;;29.72;9.85;;;;;;;20.98;46.92;99083.88;2310591;76;50231;-83
2024/03/31 08:32:07;;;;;;;31.17;9.53;;;;;;;20.98;46.98;99082.52;2342849;76;50154;-83
2024/03/31 08:35:09;;;;;;;23.55;9.78;;;;;;;20.99;46.93;99077.45;2336887;75;50683;-82
2024/03/31 08:38:11;;;;;;;26.20;9.50;;;;;;;20.99;46.93;99081.48;2310717;76;52266;-84
2024/03/31 08:41:17;;;;;;;26.37;9.65;;;;;;;21.00;46.94;99088.48;2342676;76;50813;-83
2024/03/31 08:44:19;;;;;;;26.60;9.30;;;;;;;21.01;46.92;99091.98;2328710;76;50720;-81
2024/03/31 08:47:32;;;;;;;27.98;10.18;;;;;;;21.01;46.92;99088.77;2315529;76;50501;-83
2024/03/31 08:50:34;;;;;;;32.03;10.30;;;;;;;21.02;46.93;99089.08;2292061;76;50802;-82
2024/03/31 08:53:37;;;;;;;30.20;10.28;;;;;;;21.05;46.97;99098.54;2315804;76;50698;-83
2024/03/31 08:56:39;;;;;;;29.70;9.80;;;;;;;21.04;46.99;99106.30;2291431;76;50998;-82
2024/03/31 08:59:41;;;;;;;36.80;10.93;;;;;;;21.04;46.85;99119.75;2315635;76;50395;-84
2024/03/31 09:02:43;;;;;;;29.35;10.28;;;;;;;21.07;46.53;99126.84;2316039;76;51503;-84
2024/03/31 09:05:46;;;;;;;31.87;10.08;;;;;;;21.08;46.65;99131.14;2291249;76;49894;-83
2024/03/31 09:08:58;;;;;;;31.80;11.05;;;;;;;21.08;46.56;99145.94;2315687;76;50301;-83
2024/03/31 09:12:01;;;;;;;34.70;10.63;;;;;;;21.09;46.62;99146.75;2315723;76;51565;-83
2024/03/31 09:15:03;;;;;;;30.05;10.53;;;;;;;21.08;46.62;99147.28;2315704;76;50732;-83
2024/03/31 09:18:06;;;;;;;36.90;10.50;;;;;;;21.10;46.55;99159.16;2291230;76;50105;-83
2024/03/31 09:21:10;;;;;;;35.88;10.60;;;;;;;21.09;46.52;99156.16;2291015;76;50026;-83
2024/03/31 09:24:12;;;;;;;32.30;11.08;;;;;;;21.10;46.47;99158.62;2317351;76;51645;-83
2024/03/31 09:27:14;;;;;;;32.45;10.32;;;;;;;21.13;46.43;99163.25;2315357;76;51481;-83
2024/03/31 09:30:16;;;;;;;35.83;10.88;;;;;;;21.14;46.53;99167.03;2291249;76;50953;-83
2024/03/31 09:33:18;;;;;;;33.83;11.60;;;;;;;21.14;46.57;99175.10;2315209;76;50410;-82
2024/03/31 09:36:21;;;;;;;28.15;10.13;;;;;;;21.15;46.60;99184.02;2291435;76;50126;-82
2024/03/31 09:39:24;;;;;;;31.35;10.65;;;;;;;21.17;46.58;99189.95;2316083;76;50720;-83
2024/03/31 09:42:26;;;;;;;36.00;10.85;;;;;;;21.18;46.67;99192.95;2290794;76;50083;-82
2024/03/31 09:45:28;;;;;;;32.55;10.65;;;;;;;21.19;46.67;99184.63;2305678;76;50080;-83
2024/03/31 09:48:30;;;;;;;28.95;10.08;;;;;;;21.21;46.68;99187.09;2342333;76;50462;-83
2024/03/31 09:51:34;;;;;;;36.63;10.58;;;;;;;21.22;46.70;99171.23;2341982;76;50762;-83
2024/03/31 09:54:39;;;;;;;29.10;10.00;;;;;;;21.22;46.71;99153.25;2310177;76;49634;-84
2024/03/31 09:57:47;;;;;;;34.05;10.68;;;;;;;21.24;46.73;99147.61;2337594;76;51583;-84
2024/03/31 10:00:49;;;;;;;26.70;10.95;;;;;;;21.25;46.71;99141.19;2337012;76;51510;-83
2024/03/31 10:03:52;;;;;;;27.02;9.98;;;;;;;21.27;46.64;99130.48;2342203;75;51468;-84
2024/03/31 10:06:54;;;;;;;29.80;10.28;;;;;;;21.27;46.71;99124.27;2341890;76;50441;-83
2024/03/31 10:09:57;;;;;;;30.90;10.15;;;;;;;21.29;46.63;99120.81;2310151;76;50048;-82
2024/03/31 10:12:59;;;;;;;31.17;10.08;;;;;;;21.30;46.72;99115.73;2342704;76;51565;-84
2024/03/31 10:16:01;;;;;;;28.23;9.55;;;;;;;21.32;46.71;99124.37;2342658;75;50003;-84
2024/03/31 10:19:04;;;;;;;26.97;10.43;;;;;;;21.31;46.70;99122.74;2310860;76;49583;-83
2024/03/31 10:22:06;;;;;;;29.42;10.65;;;;;;;21.30;46.81;99134.04;2343028;76;50599;-83
2024/03/31 10:25:08;;;;;;;31.40;10.23;;;;;;;21.31;46.85;99138.35;2342688;75;50187;-83
2024/03/31 10:28:10;;;;;;;31.82;10.90;;;;;;;21.32;46.91;99145.89;2342771;76;51642;-83
2024/03/31 10:31:12;;;;;;;30.62;10.53;;;;;;;21.34;46.89;99153.20;2342636;76;52047;-83
2024/03/31 10:34:15;;;;;;;28.27;10.48;;;;;;;21.34;46.85;99148.36;2310915;75;50063;-82
2024/03/31 10:37:17;;;;;;;31.70;10.05;;;;;;;21.34;46.89;99142.97;2343333;76;50226;-83
2024/03/31 10:40:21;;;;;;;30.35;10.43;;;;;;;21.35;46.94;99148.13;2343442;76;51459;-83
2024/03/31 10:43:23;;;;;;;28.77;10.20;;;;;;;21.36;46.96;99138.18;2312702;76;22341;-82
2024/03/31 10:46:25;;;;;;;33.90;10.90;;;;;;;21.37;46.89;99131.73;2320771;75;50721;-82
2024/03/31 10:49:41;;;;;;;34.30;10.40;;;;;;;21.38;46.88;99128.00;2317222;76;51594;-83
2024/03/31 10:52:43;;;;;;;29.20;10.10;;;;;;;21.38;46.84;99128.00;2292901;76;50722;-84
2024/03/31 10:55:46;;;;;;;34.13;11.15;;;;;;;21.39;46.87;99141.77;2317991;75;50407;-83
2024/03/31 10:58:48;;;;;;;33.83;10.70;;;;;;;21.39;46.84;99141.23;2292145;76;50968;-82
2024/03/31 11:01:50;;;;;;;30.02;10.60;;;;;;;21.41;46.82;99144.50;2292306;76;50201;-82
2024/03/31 11:05:04;;;;;;;29.20;10.18;;;;;;;21.42;46.93;99153.39;2292408;76;49877;-83
2024/03/31 11:08:09;;;;;;;32.50;9.70;;;;;;;21.42;46.86;99154.73;2310614;76;50219;-82
2024/03/31 11:11:13;;;;;;;27.35;10.75;;;;;;;21.42;46.86;99158.23;2315568;76;51613;-82
2024/03/31 11:14:15;;;;;;;31.62;11.03;;;;;;;21.44;46.84;99161.52;2315213;76;51542;-81
2024/03/31 11:17:17;;;;;;;32.10;10.23;;;;;;;21.46;46.85;99160.76;2315564;76;50769;-83
2024/03/31 11:20:20;;;;;;;29.95;10.30;;;;;;;21.49;46.80;99164.84;2315636;76;50318;-81
2024/03/31 11:23:22;;;;;;;32.48;10.93;;;;;;;21.49;46.82;99164.31;2291564;76;51099;-83
2024/03/31 11:26:24;;;;;;;33.10;10.63;;;;;;;21.48;46.89;99163.22;2315358;76;51538;-81
2024/03/31 11:29:26;;;;;;;27.25;10.05;;;;;;;21.49;46.87;99156.77;2315734;76;51608;-81
2024/03/31 11:32:29;;;;;;;25.37;8.85;;;;;;;21.49;46.90;99156.77;2291339;76;50941;-81
2024/03/31 11:35:33;;;;;;;33.88;9.80;;;;;;;21.49;46.91;99150.86;2315804;76;51470;-83
2024/03/31 11:38:36;;;;;;;28.55;10.30;;;;;;;21.51;46.91;99158.17;2316068;76;52271;-82
2024/03/31 11:41:39;;;;;;;33.28;9.40;;;;;;;21.54;46.89;99164.95;2291682;76;50696;-82
2024/03/31 11:44:41;;;;;;;28.10;9.55;;;;;;;21.53;46.88;99169.52;2315547;76;51697;-83
2024/03/31 11:47:43;;;;;;;27.52;10.13;;;;;;;21.53;46.89;99166.83;2291147;76;49618;-82
2024/03/31 11:50:45;;;;;;;28.90;9.73;;;;;;;21.55;46.91;99165.22;2315850;76;50236;-82
2024/03/31 11:53:47;;;;;;;31.52;10.40;;;;;;;21.56;46.96;99168.76;2315585;76;50714;-82
2024/03/31 11:56:49;;;;;;;24.52;9.23;;;;;;;21.55;46.93;99177.87;2291212;76;50983;-82
2024/03/31 11:59:58;;;;;;;31.85;9.93;;;;;;;21.55;46.95;99175.98;2315798;76;51885;-81
2024/03/31 12:03:09;;;;;;;28.85;9.55;;;;;;;21.57;46.93;99165.00;2315822;76;50784;-81
2024/03/31 12:06:11;;;;;;;32.45;10.28;;;;;;;21.57;46.96;99165.00;2315778;76;51562;-83
2024/03/31 12:09:14;;;;;;;28.77;9.93;;;;;;;21.57;47.00;99155.05;2315905;76;50608;-81
2024/03/31 12:12:16;;;;;;;24.40;9.08;;;;;;;21.58;46.99;99148.63;2291396;76;50107;-83
2024/03/31 12:15:19;;;;;;;33.88;10.30;;;;;;;21.59;46.98;99146.74;2315434;76;50537;-82
2024/03/31 12:18:22;;;;;;;29.55;9.68;;;;;;;21.58;47.06;99147.27;2315326;76;51615;-81
2024/03/31 12:21:25;;;;;;;32.28;10.43;;;;;;;21.60;47.03;99136.25;2291077;76;51107;-82
2024/03/31 12:24:27;;;;;;;24.65;9.15;;;;;;;21.59;46.99;99122.52;2315237;76;50771;-82
2024/03/31 12:27:29;;;;;;;29.55;10.00;;;;;;;21.59;47.04;99117.13;2315053;76;50270;-81
2024/03/31 12:30:42;;;;;;;30.92;10.18;;;;;;;21.58;47.06;99091.26;2315129;76;50636;-82
2024/03/31 12:33:45;;;;;;;22.10;9.40;;;;;;;21.57;46.99;99083.72;2311746;76;52300;-82
2024/03/31 12:36:47;;;;;;;28.02;9.60;;;;;;;21.57;47.01;99081.56;2284430;76;51365;-82
2024/03/31 12:39:49;;;;;;;27.25;10.38;;;;;;;21.57;46.98;99096.36;2315809;76;50709;-81
2024/03/31 12:42:51;;;;;;;28.77;9.35;;;;;;;21.57;46.97;99097.17;2315787;76;51432;-80
2024/03/31 12:45:54;;;;;;;26.95;9.15;;;;;;;21.57;46.96;99093.14;2291287;76;49564;-80
2024/03/31 12:48:56;;;;;;;25.32;9.83;;;;;;;21.56;46.95;99081.28;2291362;76;51470;-81
2024/03/31 12:51:58;;;;;;;31.52;10.05;;;;;;;21.56;47.05;99078.59;2317319;76;51681;-81
2024/03/31 12:55:03;;;;;;;31.12;9.68;;;;;;;21.57;46.98;99081.56;2315733;76;52169;-81
2024/03/31 12:58:05;;;;;;;;;;;;;;;21.56;46.97;99082.63;2317787;76;51534;-81
2024/03/31 13:01:07;;;;;;;28.05;9.73;;;;;;;21.57;47.00;99081.56;2316000;76;50446;-82
2024/03/31 13:04:09;;;;;;;26.05;9.10;;;;;;;21.58;47.01;99058.95;2315979;76;50362;-82
2024/03/31 13:07:12;;;;;;;32.67;10.38;;;;;;;21.58;46.95;99060.30;2315878;76;50149;-82
2024/03/31 13:10:14;;;;;;;32.35;10.55;;;;;;;21.57;47.04;99076.98;2291318;76;50993;-81
2024/03/31 13:13:17;;;;;;;28.20;10.13;;;;;;;21.58;47.10;99096.64;2315408;76;50399;-82
2024/03/31 13:16:21;;;;;;;31.65;9.85;;;;;;;21.57;47.08;99100.41;2315192;76;50403;-81
2024/03/31 13:19:23;;;;;;;25.60;9.63;;;;;;;21.57;46.97;99099.06;2315838;76;24628;-82
2024/03/31 13:22:25;;;;;;;26.30;9.53;;;;;;;21.58;46.92;99099.33;2315499;76;51448;-82
2024/03/31 13:25:27;;;;;;;34.65;10.15;;;;;;;21.57;46.89;99100.41;2315136;76;51481;-82
2024/03/31 13:28:30;;;;;;;27.58;9.68;;;;;;;21.57;46.93;99108.47;2317151;76;51442;-82
2024/03/31 13:31:32;;;;;;;27.77;9.30;;;;;;;21.55;47.00;99099.82;2317211;76;52002;-82
2024/03/31 13:34:34;;;;;;;29.10;8.90;;;;;;;21.55;47.02;99095.78;2291253;76;52548;-81
2024/03/31 13:37:37;;;;;;;27.60;9.45;;;;;;;21.55;46.93;99095.78;2315263;76;51414;-82
2024/03/31 13:40:39;;;;;;;26.02;9.68;;;;;;;21.56;46.95;99098.25;2315446;76;51455;-81
2024/03/31 13:43:41;;;;;;;27.52;9.05;;;;;;;21.55;46.97;99101.16;2290982;76;50965;-81
2024/03/31 13:46:43;;;;;;;26.95;8.90;;;;;;;21.55;46.98;99092.55;2315183;76;50407;-81
2024/03/31 13:49:45;;;;;;;24.95;8.80;;;;;;;21.55;46.98;99094.44;2315613;76;50599;-81
2024/03/31 13:52:48;;;;;;;27.82;9.23;;;;;;;21.55;47.04;99088.52;2315772;76;50607;-82
2024/03/31 13:55:50;;;;;;;27.58;9.33;;;;;;;21.55;47.00;99078.29;2315502;76;50449;-82
2024/03/31 13:58:52;;;;;;;23.90;8.95;;;;;;;21.55;47.04;99079.63;2284486;76;49460;-82
2024/03/31 14:01:55;;;;;;;32.20;10.28;;;;;;;21.55;47.04;99080.98;2291109;76;50616;-82
2024/03/31 14:04:57;;;;;;;24.57;8.88;;;;;;;21.55;47.03;99080.98;2317194;75;51608;-82